SWR091 LSZH-LEIB
Flight info
| Callsign | SWR091 |
|---|---|
| Flight time | 1h 51m |
| Altitude | 33000 |
| Route | VEBIT T50 ROTOS Z669 ULMES DCT VADAR/N0471F410 DCT GEVEA DCT INCUS DCT BALSI DCT RETNO DCT TUPOX DCT MTG DCT DIVKO DCT VATIR DCT PIVUS DCT SULID DCT DIMIB DCT POS |
| Aircraft | A343/H-SDE2E3FGHIJ4J5M1RWXY/LB1D1 |
Departure
| Time | 2026-05-06 10:50 |
|---|---|
| Airport | Zürich Airport (LSZH) |
Arrival
| Time | 2026-05-06 12:41 |
|---|---|
| Airport | Ibiza Airport (LEIB) |
| Time | Latitude | Longitude | Altitude | Speed | Heading |
|---|---|---|---|---|---|
| 2026-05-06 10:17 | 47.45331 | 8.55860 | 1401 ft | 0 kts | 6° |
| 2026-05-06 10:27 | 47.45329 | 8.55860 | 1409 ft | 2 kts | 6° |
| 2026-05-06 10:27 | 47.45312 | 8.55858 | 1401 ft | 2 kts | 0° |
| 2026-05-06 10:27 | 47.45296 | 8.55859 | 1406 ft | 2 kts | 352° |
| 2026-05-06 10:28 | 47.45280 | 8.55864 | 1404 ft | 2 kts | 338° |
| 2026-05-06 10:28 | 47.45265 | 8.55874 | 1411 ft | 2 kts | 314° |
| 2026-05-06 10:28 | 47.45255 | 8.55893 | 1407 ft | 2 kts | 289° |
| 2026-05-06 10:28 | 47.45251 | 8.55914 | 1406 ft | 1 kts | 277° |
| 2026-05-06 10:29 | 47.45251 | 8.55919 | 1406 ft | 0 kts | 275° |
| 2026-05-06 10:29 | 47.45251 | 8.55918 | 1406 ft | 0 kts | 275° |
| 2026-05-06 10:30 | 47.45251 | 8.55911 | 1406 ft | 1 kts | 275° |
| 2026-05-06 10:30 | 47.45252 | 8.55893 | 1407 ft | 2 kts | 275° |
| 2026-05-06 10:30 | 47.45254 | 8.55867 | 1408 ft | 3 kts | 276° |
| 2026-05-06 10:30 | 47.45255 | 8.55853 | 1405 ft | 0 kts | 276° |
| 2026-05-06 10:31 | 47.45255 | 8.55850 | 1404 ft | 1 kts | 276° |
| 2026-05-06 10:31 | 47.45256 | 8.55846 | 1410 ft | 0 kts | 276° |
| 2026-05-06 10:32 | 47.45256 | 8.55844 | 1410 ft | 0 kts | 276° |
| 2026-05-06 10:32 | 47.45256 | 8.55837 | 1409 ft | 1 kts | 276° |
| 2026-05-06 10:32 | 47.45257 | 8.55824 | 1403 ft | 1 kts | 276° |
| 2026-05-06 10:33 | 47.45259 | 8.55807 | 1407 ft | 2 kts | 276° |
| 2026-05-06 10:33 | 47.45260 | 8.55786 | 1404 ft | 2 kts | 276° |
| 2026-05-06 10:33 | 47.45262 | 8.55763 | 1403 ft | 2 kts | 276° |
| 2026-05-06 10:33 | 47.45264 | 8.55737 | 1401 ft | 3 kts | 276° |
| 2026-05-06 10:34 | 47.45265 | 8.55719 | 1401 ft | 3 kts | 276° |
| 2026-05-06 10:34 | 47.45267 | 8.55691 | 1401 ft | 3 kts | 276° |
| 2026-05-06 10:34 | 47.45269 | 8.55662 | 1401 ft | 3 kts | 276° |
| 2026-05-06 10:34 | 47.45270 | 8.55652 | 1401 ft | 0 kts | 276° |
| 2026-05-06 10:36 | 47.45270 | 8.55642 | 1401 ft | 2 kts | 276° |
| 2026-05-06 10:37 | 47.45273 | 8.55611 | 1401 ft | 4 kts | 276° |
| 2026-05-06 10:37 | 47.45275 | 8.55565 | 1401 ft | 5 kts | 272° |
| 2026-05-06 10:37 | 47.45267 | 8.55526 | 1408 ft | 2 kts | 235° |
| 2026-05-06 10:37 | 47.45253 | 8.55512 | 1411 ft | 2 kts | 212° |
| 2026-05-06 10:38 | 47.45234 | 8.55506 | 1406 ft | 4 kts | 190° |
| 2026-05-06 10:38 | 47.45211 | 8.55508 | 1406 ft | 4 kts | 170° |
| 2026-05-06 10:38 | 47.45179 | 8.55519 | 1409 ft | 6 kts | 163° |
| 2026-05-06 10:38 | 47.45138 | 8.55548 | 1410 ft | 8 kts | 154° |
| 2026-05-06 10:39 | 47.45082 | 8.55589 | 1410 ft | 10 kts | 154° |
| 2026-05-06 10:39 | 47.45008 | 8.55639 | 1409 ft | 13 kts | 155° |
| 2026-05-06 10:39 | 47.44919 | 8.55698 | 1406 ft | 15 kts | 156° |
| 2026-05-06 10:39 | 47.44821 | 8.55764 | 1411 ft | 15 kts | 155° |
| 2026-05-06 10:40 | 47.44743 | 8.55819 | 1411 ft | 0 kts | 155° |
| 2026-05-06 10:40 | 47.44741 | 8.55820 | 1411 ft | 0 kts | 155° |
| 2026-05-06 10:40 | 47.44736 | 8.55823 | 1406 ft | 1 kts | 155° |
| 2026-05-06 10:40 | 47.44732 | 8.55826 | 1411 ft | 0 kts | 155° |
| 2026-05-06 10:45 | 47.44729 | 8.55828 | 1411 ft | 1 kts | 155° |
| 2026-05-06 10:45 | 47.44711 | 8.55840 | 1411 ft | 5 kts | 154° |
| 2026-05-06 10:45 | 47.44675 | 8.55866 | 1404 ft | 6 kts | 158° |
| 2026-05-06 10:45 | 47.44647 | 8.55861 | 1402 ft | 2 kts | 206° |
| 2026-05-06 10:46 | 47.44644 | 8.55859 | 1402 ft | 0 kts | 209° |
| 2026-05-06 10:46 | 47.44643 | 8.55857 | 1402 ft | 1 kts | 209° |
| 2026-05-06 10:46 | 47.44632 | 8.55841 | 1413 ft | 5 kts | 226° |
| 2026-05-06 10:46 | 47.44599 | 8.55761 | 1409 ft | 12 kts | 244° |
| 2026-05-06 10:47 | 47.44583 | 8.55660 | 1408 ft | 8 kts | 284° |
| 2026-05-06 10:47 | 47.44628 | 8.55617 | 1408 ft | 9 kts | 342° |
| 2026-05-06 10:47 | 47.44669 | 8.55592 | 1407 ft | 0 kts | 334° |
| 2026-05-06 10:49 | 47.44676 | 8.55587 | 1407 ft | 7 kts | 334° |
| 2026-05-06 10:49 | 47.44837 | 8.55476 | 1401 ft | 55 kts | 335° |
| 2026-05-06 10:49 | 47.45360 | 8.55116 | 1412 ft | 112 kts | 335° |
| 2026-05-06 10:49 | 47.46217 | 8.54524 | 1413 ft | 158 kts | 335° |
| 2026-05-06 10:50 | 47.47272 | 8.53799 | 1837 ft | 171 kts | 335° |
| 2026-05-06 10:50 | 47.48392 | 8.53042 | 2400 ft | 184 kts | 335° |
| 2026-05-06 10:50 | 47.49614 | 8.52203 | 2874 ft | 208 kts | 333° |
| 2026-05-06 10:50 | 47.50979 | 8.51252 | 2974 ft | 214 kts | 333° |
| 2026-05-06 10:51 | 47.52296 | 8.50342 | 3063 ft | 204 kts | 333° |
| 2026-05-06 10:51 | 47.53534 | 8.49495 | 3099 ft | 192 kts | 333° |
| 2026-05-06 10:51 | 47.54721 | 8.48687 | 3095 ft | 184 kts | 333° |
| 2026-05-06 10:51 | 47.55866 | 8.47910 | 3091 ft | 178 kts | 333° |
| 2026-05-06 10:52 | 47.56987 | 8.47145 | 3045 ft | 176 kts | 333° |
| 2026-05-06 10:52 | 47.58103 | 8.46368 | 2957 ft | 179 kts | 332° |
| 2026-05-06 10:52 | 47.58940 | 8.45049 | 2874 ft | 182 kts | 286° |
| 2026-05-06 10:52 | 47.58760 | 8.43234 | 3103 ft | 191 kts | 237° |
| 2026-05-06 10:53 | 47.57615 | 8.42053 | 3494 ft | 221 kts | 195° |
| 2026-05-06 10:53 | 47.55995 | 8.41721 | 4156 ft | 247 kts | 184° |
| 2026-05-06 10:53 | 47.54227 | 8.41666 | 5099 ft | 259 kts | 184° |
| 2026-05-06 10:53 | 47.52417 | 8.41471 | 6178 ft | 262 kts | 187° |
| 2026-05-06 10:54 | 47.50604 | 8.41094 | 7242 ft | 263 kts | 190° |
| 2026-05-06 10:54 | 47.48812 | 8.40485 | 8295 ft | 266 kts | 197° |
| 2026-05-06 10:54 | 47.47122 | 8.39295 | 9279 ft | 270 kts | 207° |
| 2026-05-06 10:54 | 47.45418 | 8.38099 | 10234 ft | 275 kts | 201° |
| 2026-05-06 10:55 | 47.43594 | 8.37068 | 10762 ft | 294 kts | 200° |
| 2026-05-06 10:55 | 47.41613 | 8.36008 | 11228 ft | 312 kts | 200° |
| 2026-05-06 10:55 | 47.39630 | 8.34499 | 11661 ft | 331 kts | 216° |
| 2026-05-06 10:55 | 47.38037 | 8.31981 | 12343 ft | 342 kts | 237° |
| 2026-05-06 10:56 | 47.36859 | 8.28873 | 13046 ft | 350 kts | 242° |
| 2026-05-06 10:56 | 47.35736 | 8.25645 | 13783 ft | 357 kts | 242° |
| 2026-05-06 10:56 | 47.34596 | 8.22371 | 14471 ft | 362 kts | 242° |
| 2026-05-06 10:56 | 47.33428 | 8.19058 | 15142 ft | 366 kts | 241° |
| 2026-05-06 10:57 | 47.32240 | 8.15710 | 15843 ft | 369 kts | 241° |
| 2026-05-06 10:57 | 47.31040 | 8.12335 | 16525 ft | 373 kts | 241° |
| 2026-05-06 10:57 | 47.29831 | 8.08930 | 17266 ft | 375 kts | 241° |
| 2026-05-06 10:57 | 47.28630 | 8.05553 | 17988 ft | 379 kts | 240° |
| 2026-05-06 10:58 | 47.27398 | 8.02090 | 18561 ft | 383 kts | 241° |
| 2026-05-06 10:58 | 47.26240 | 7.98524 | 19209 ft | 387 kts | 244° |
| 2026-05-06 10:58 | 47.25171 | 7.94876 | 19875 ft | 390 kts | 245° |
| 2026-05-06 10:58 | 47.24137 | 7.91160 | 20525 ft | 394 kts | 245° |
| 2026-05-06 10:59 | 47.23112 | 7.87405 | 21164 ft | 397 kts | 245° |
| 2026-05-06 10:59 | 47.22079 | 7.83626 | 21766 ft | 399 kts | 245° |
| 2026-05-06 10:59 | 47.21033 | 7.79828 | 22348 ft | 402 kts | 245° |
| 2026-05-06 10:59 | 47.19961 | 7.76009 | 22915 ft | 404 kts | 243° |
| 2026-05-06 11:00 | 47.18644 | 7.72337 | 23558 ft | 404 kts | 234° |
| 2026-05-06 11:00 | 47.17047 | 7.68938 | 24127 ft | 405 kts | 231° |
| 2026-05-06 11:00 | 47.15354 | 7.65631 | 24726 ft | 403 kts | 229° |
| 2026-05-06 11:00 | 47.13621 | 7.62395 | 25308 ft | 403 kts | 228° |
| 2026-05-06 11:01 | 47.11882 | 7.59211 | 25781 ft | 404 kts | 228° |
| 2026-05-06 11:01 | 47.10115 | 7.55994 | 26260 ft | 406 kts | 228° |
| 2026-05-06 11:01 | 47.08347 | 7.52769 | 26778 ft | 406 kts | 228° |
| 2026-05-06 11:01 | 47.06573 | 7.49524 | 27334 ft | 406 kts | 228° |
| 2026-05-06 11:02 | 47.04808 | 7.46286 | 27819 ft | 407 kts | 228° |
| 2026-05-06 11:02 | 47.03042 | 7.43041 | 28198 ft | 410 kts | 228° |
| 2026-05-06 11:02 | 47.01250 | 7.39746 | 28461 ft | 415 kts | 228° |
| 2026-05-06 11:02 | 46.99424 | 7.36405 | 28634 ft | 423 kts | 227° |
| 2026-05-06 11:03 | 46.97564 | 7.33016 | 28778 ft | 431 kts | 227° |
| 2026-05-06 11:03 | 46.95668 | 7.29570 | 28974 ft | 437 kts | 228° |
| 2026-05-06 11:03 | 46.93754 | 7.26088 | 29316 ft | 439 kts | 228° |
| 2026-05-06 11:03 | 46.91878 | 7.22660 | 30068 ft | 434 kts | 228° |
| 2026-05-06 11:04 | 46.89975 | 7.19185 | 30625 ft | 431 kts | 228° |
| 2026-05-06 11:04 | 46.88096 | 7.15759 | 30954 ft | 432 kts | 228° |
| 2026-05-06 11:04 | 46.86236 | 7.12377 | 31274 ft | 433 kts | 228° |
| 2026-05-06 11:04 | 46.84349 | 7.08950 | 31620 ft | 432 kts | 228° |
| 2026-05-06 11:05 | 46.82463 | 7.05528 | 32019 ft | 431 kts | 228° |
| 2026-05-06 11:05 | 46.80577 | 7.02114 | 32379 ft | 430 kts | 228° |
| 2026-05-06 11:05 | 46.78695 | 6.98709 | 32713 ft | 430 kts | 228° |
| 2026-05-06 11:05 | 46.76806 | 6.95299 | 32911 ft | 433 kts | 228° |
| 2026-05-06 11:06 | 46.74914 | 6.91885 | 32955 ft | 431 kts | 228° |
| 2026-05-06 11:06 | 46.71157 | 6.85118 | 32902 ft | 434 kts | 228° |
| 2026-05-06 11:07 | 46.67339 | 6.78262 | 32891 ft | 436 kts | 228° |
| 2026-05-06 11:07 | 46.63463 | 6.71488 | 32882 ft | 435 kts | 225° |
| 2026-05-06 11:08 | 46.59307 | 6.65107 | 32875 ft | 434 kts | 224° |
| 2026-05-06 11:08 | 46.55083 | 6.58822 | 32873 ft | 433 kts | 221° |
| 2026-05-06 11:09 | 46.50286 | 6.53676 | 32876 ft | 431 kts | 208° |
| 2026-05-06 11:09 | 46.44823 | 6.50122 | 33330 ft | 430 kts | 202° |
| 2026-05-06 11:09 | 46.42043 | 6.48544 | 33780 ft | 427 kts | 201° |
| 2026-05-06 11:10 | 46.39269 | 6.47011 | 34118 ft | 426 kts | 201° |
| 2026-05-06 11:10 | 46.36493 | 6.45481 | 34282 ft | 429 kts | 201° |
| 2026-05-06 11:10 | 46.33702 | 6.43934 | 34476 ft | 430 kts | 202° |
| 2026-05-06 11:10 | 46.30909 | 6.42373 | 34721 ft | 431 kts | 202° |
| 2026-05-06 11:11 | 46.28104 | 6.40797 | 34947 ft | 432 kts | 202° |
| 2026-05-06 11:11 | 46.25297 | 6.39213 | 35100 ft | 435 kts | 202° |
| 2026-05-06 11:11 | 46.22452 | 6.37606 | 35097 ft | 442 kts | 202° |
| 2026-05-06 11:11 | 46.19589 | 6.35991 | 35344 ft | 441 kts | 202° |
| 2026-05-06 11:12 | 46.16732 | 6.34381 | 35607 ft | 441 kts | 202° |
| 2026-05-06 11:12 | 46.13864 | 6.32768 | 35849 ft | 442 kts | 202° |
| 2026-05-06 11:12 | 46.11005 | 6.31163 | 36089 ft | 442 kts | 202° |
| 2026-05-06 11:12 | 46.08171 | 6.29573 | 36307 ft | 442 kts | 202° |
| 2026-05-06 11:13 | 46.05305 | 6.27966 | 36524 ft | 443 kts | 202° |
| 2026-05-06 11:13 | 46.02434 | 6.26359 | 36749 ft | 443 kts | 202° |
| 2026-05-06 11:13 | 45.99558 | 6.24751 | 36949 ft | 443 kts | 202° |
| 2026-05-06 11:13 | 45.96686 | 6.23147 | 37227 ft | 442 kts | 202° |
| 2026-05-06 11:14 | 45.93814 | 6.21545 | 37455 ft | 442 kts | 202° |
| 2026-05-06 11:14 | 45.90937 | 6.19942 | 37677 ft | 443 kts | 202° |
| 2026-05-06 11:14 | 45.88056 | 6.18338 | 37867 ft | 444 kts | 202° |
| 2026-05-06 11:14 | 45.85175 | 6.16735 | 38111 ft | 444 kts | 202° |
| 2026-05-06 11:15 | 45.82291 | 6.15134 | 38331 ft | 445 kts | 202° |
| 2026-05-06 11:15 | 45.79392 | 6.13526 | 38497 ft | 445 kts | 202° |
| 2026-05-06 11:15 | 45.76492 | 6.11918 | 38609 ft | 447 kts | 202° |
| 2026-05-06 11:15 | 45.73631 | 6.10334 | 38760 ft | 447 kts | 202° |
| 2026-05-06 11:16 | 45.70726 | 6.08728 | 38950 ft | 447 kts | 202° |
| 2026-05-06 11:16 | 45.67824 | 6.07126 | 39124 ft | 447 kts | 202° |
| 2026-05-06 11:16 | 45.64925 | 6.05527 | 39294 ft | 447 kts | 202° |
| 2026-05-06 11:17 | 45.59077 | 6.02307 | 39468 ft | 452 kts | 202° |
| 2026-05-06 11:17 | 45.53176 | 5.99064 | 39648 ft | 456 kts | 202° |
| 2026-05-06 11:17 | 45.50213 | 5.97439 | 39766 ft | 457 kts | 202° |
| 2026-05-06 11:18 | 45.47182 | 5.96024 | 39882 ft | 459 kts | 196° |
| 2026-05-06 11:18 | 45.44067 | 5.94926 | 40036 ft | 461 kts | 195° |
| 2026-05-06 11:18 | 45.40949 | 5.93906 | 40136 ft | 461 kts | 194° |
| 2026-05-06 11:18 | 45.37857 | 5.92936 | 40313 ft | 460 kts | 194° |
| 2026-05-06 11:19 | 45.34724 | 5.91971 | 40464 ft | 460 kts | 194° |
| 2026-05-06 11:19 | 45.31593 | 5.91011 | 40608 ft | 461 kts | 194° |
| 2026-05-06 11:19 | 45.28451 | 5.90044 | 40731 ft | 461 kts | 194° |
| 2026-05-06 11:19 | 45.25316 | 5.89077 | 40858 ft | 461 kts | 194° |
| 2026-05-06 11:20 | 45.22172 | 5.88103 | 40907 ft | 462 kts | 194° |
| 2026-05-06 11:20 | 45.15897 | 5.86157 | 40919 ft | 460 kts | 194° |
| 2026-05-06 11:21 | 45.10703 | 5.84549 | 40918 ft | 459 kts | 194° |
| 2026-05-06 11:21 | 45.03407 | 5.82294 | 40906 ft | 459 kts | 194° |
| 2026-05-06 11:22 | 44.98213 | 5.80693 | 40913 ft | 459 kts | 194° |
| 2026-05-06 11:22 | 44.91963 | 5.78771 | 40913 ft | 459 kts | 194° |
| 2026-05-06 11:23 | 44.85755 | 5.76865 | 40925 ft | 458 kts | 194° |
| 2026-05-06 11:23 | 44.79534 | 5.74962 | 40907 ft | 452 kts | 194° |
| 2026-05-06 11:24 | 44.73443 | 5.73106 | 40911 ft | 445 kts | 194° |
| 2026-05-06 11:24 | 44.67392 | 5.71259 | 40919 ft | 444 kts | 194° |
| 2026-05-06 11:25 | 44.61375 | 5.69425 | 40912 ft | 446 kts | 194° |
| 2026-05-06 11:25 | 44.55306 | 5.67582 | 40912 ft | 447 kts | 194° |
| 2026-05-06 11:26 | 44.49228 | 5.65741 | 40923 ft | 447 kts | 194° |
| 2026-05-06 11:26 | 44.43152 | 5.63878 | 40919 ft | 445 kts | 197° |
| 2026-05-06 11:27 | 44.37290 | 5.61174 | 40922 ft | 443 kts | 202° |
| 2026-05-06 11:27 | 44.31556 | 5.58179 | 40907 ft | 442 kts | 202° |
| 2026-05-06 11:28 | 44.25806 | 5.55118 | 40920 ft | 442 kts | 202° |
| 2026-05-06 11:28 | 44.20026 | 5.52057 | 40914 ft | 441 kts | 202° |
| 2026-05-06 11:29 | 44.14315 | 5.49055 | 40913 ft | 441 kts | 202° |
| 2026-05-06 11:29 | 44.08568 | 5.46044 | 40912 ft | 441 kts | 202° |
| 2026-05-06 11:30 | 44.02829 | 5.43045 | 40917 ft | 439 kts | 202° |
| 2026-05-06 11:30 | 43.97103 | 5.40057 | 40918 ft | 439 kts | 202° |
| 2026-05-06 11:31 | 43.91438 | 5.37028 | 40918 ft | 438 kts | 203° |
| 2026-05-06 11:31 | 43.85749 | 5.33928 | 40921 ft | 439 kts | 204° |
| 2026-05-06 11:32 | 43.80062 | 5.30842 | 40929 ft | 440 kts | 203° |
| 2026-05-06 11:32 | 43.74350 | 5.27765 | 40932 ft | 441 kts | 203° |
| 2026-05-06 11:33 | 43.68628 | 5.24694 | 40930 ft | 441 kts | 204° |
| 2026-05-06 11:33 | 43.62909 | 5.21632 | 40938 ft | 441 kts | 204° |
| 2026-05-06 11:34 | 43.57186 | 5.18572 | 40937 ft | 441 kts | 204° |
| 2026-05-06 11:34 | 43.51464 | 5.15518 | 40926 ft | 441 kts | 204° |
| 2026-05-06 11:35 | 43.45746 | 5.12472 | 40936 ft | 440 kts | 204° |
| 2026-05-06 11:35 | 43.40054 | 5.09367 | 40937 ft | 439 kts | 207° |
| 2026-05-06 11:36 | 43.34821 | 5.05122 | 40940 ft | 436 kts | 215° |
| 2026-05-06 11:36 | 43.29804 | 5.00444 | 40935 ft | 435 kts | 216° |
| 2026-05-06 11:37 | 43.24836 | 4.95723 | 40934 ft | 433 kts | 216° |
| 2026-05-06 11:37 | 43.19902 | 4.91059 | 40945 ft | 434 kts | 216° |
| 2026-05-06 11:38 | 43.14905 | 4.86369 | 40946 ft | 435 kts | 216° |
| 2026-05-06 11:38 | 43.09908 | 4.81698 | 40943 ft | 434 kts | 216° |
| 2026-05-06 11:39 | 43.04851 | 4.77178 | 40946 ft | 434 kts | 212° |
| 2026-05-06 11:39 | 42.99602 | 4.73094 | 40950 ft | 434 kts | 211° |
| 2026-05-06 11:40 | 42.94313 | 4.69091 | 40951 ft | 434 kts | 211° |
| 2026-05-06 11:40 | 42.89028 | 4.65110 | 40962 ft | 434 kts | 211° |
| 2026-05-06 11:41 | 42.83778 | 4.61154 | 40944 ft | 433 kts | 211° |
| 2026-05-06 11:41 | 42.78504 | 4.57180 | 40981 ft | 433 kts | 211° |
| 2026-05-06 11:42 | 42.73220 | 4.53204 | 40955 ft | 434 kts | 211° |
| 2026-05-06 11:42 | 42.67918 | 4.49224 | 40961 ft | 434 kts | 211° |
| 2026-05-06 11:43 | 42.62620 | 4.45255 | 40959 ft | 435 kts | 211° |
| 2026-05-06 11:43 | 42.57324 | 4.41295 | 40963 ft | 435 kts | 211° |
| 2026-05-06 11:44 | 42.49404 | 4.35388 | 40968 ft | 434 kts | 211° |
| 2026-05-06 11:44 | 42.44121 | 4.31457 | 40959 ft | 433 kts | 211° |
| 2026-05-06 11:45 | 42.38841 | 4.27536 | 40970 ft | 432 kts | 211° |
| 2026-05-06 11:45 | 42.33559 | 4.23620 | 40969 ft | 433 kts | 211° |
| 2026-05-06 11:46 | 42.28320 | 4.19744 | 40968 ft | 432 kts | 211° |
| 2026-05-06 11:46 | 42.23042 | 4.15847 | 40969 ft | 432 kts | 211° |
| 2026-05-06 11:47 | 42.17755 | 4.11950 | 40968 ft | 433 kts | 211° |
| 2026-05-06 11:47 | 42.12460 | 4.08056 | 40954 ft | 433 kts | 211° |
| 2026-05-06 11:48 | 42.07200 | 4.04197 | 40964 ft | 432 kts | 211° |
| 2026-05-06 11:48 | 42.01914 | 4.00326 | 40966 ft | 432 kts | 211° |
| 2026-05-06 11:49 | 41.96623 | 3.96458 | 40972 ft | 432 kts | 211° |
| 2026-05-06 11:49 | 41.91329 | 3.92598 | 40947 ft | 432 kts | 211° |
| 2026-05-06 11:50 | 41.85977 | 3.88931 | 40972 ft | 432 kts | 209° |
| 2026-05-06 11:50 | 41.80587 | 3.85380 | 40972 ft | 431 kts | 209° |
| 2026-05-06 11:51 | 41.75203 | 3.81811 | 40967 ft | 431 kts | 209° |
| 2026-05-06 11:51 | 41.69856 | 3.78239 | 40958 ft | 432 kts | 209° |
| 2026-05-06 11:52 | 41.64479 | 3.74642 | 40969 ft | 432 kts | 209° |
| 2026-05-06 11:52 | 41.59094 | 3.71045 | 40968 ft | 432 kts | 209° |
| 2026-05-06 11:53 | 41.53706 | 3.67457 | 40970 ft | 432 kts | 209° |
| 2026-05-06 11:53 | 41.48358 | 3.63902 | 40962 ft | 432 kts | 209° |
| 2026-05-06 11:54 | 41.42978 | 3.60334 | 40965 ft | 431 kts | 209° |
| 2026-05-06 11:54 | 41.37598 | 3.56771 | 40965 ft | 431 kts | 209° |
| 2026-05-06 11:55 | 41.32228 | 3.53222 | 40966 ft | 431 kts | 209° |
| 2026-05-06 11:55 | 41.26875 | 3.49690 | 40962 ft | 431 kts | 209° |
| 2026-05-06 11:56 | 41.21491 | 3.46147 | 40966 ft | 430 kts | 209° |
| 2026-05-06 11:56 | 41.15816 | 3.43494 | 40968 ft | 436 kts | 197° |
| 2026-05-06 11:57 | 41.09873 | 3.41791 | 40967 ft | 437 kts | 195° |
| 2026-05-06 11:57 | 41.03931 | 3.40257 | 40966 ft | 437 kts | 195° |
| 2026-05-06 11:58 | 40.97948 | 3.38718 | 40966 ft | 437 kts | 195° |
| 2026-05-06 11:58 | 40.91979 | 3.37160 | 40966 ft | 437 kts | 195° |
| 2026-05-06 11:59 | 40.86016 | 3.35594 | 40956 ft | 437 kts | 195° |
| 2026-05-06 11:59 | 40.80090 | 3.34040 | 40966 ft | 436 kts | 195° |
| 2026-05-06 12:00 | 40.74135 | 3.32482 | 40968 ft | 436 kts | 195° |
| 2026-05-06 12:00 | 40.68184 | 3.30928 | 40969 ft | 436 kts | 195° |
| 2026-05-06 12:01 | 40.62235 | 3.29377 | 40966 ft | 436 kts | 195° |
| 2026-05-06 12:01 | 40.56274 | 3.27826 | 40966 ft | 436 kts | 195° |
| 2026-05-06 12:02 | 40.50313 | 3.26278 | 40966 ft | 436 kts | 195° |
| 2026-05-06 12:02 | 40.44383 | 3.24741 | 40966 ft | 436 kts | 195° |
| 2026-05-06 12:03 | 40.38424 | 3.23200 | 40964 ft | 436 kts | 196° |
| 2026-05-06 12:03 | 40.32469 | 3.21662 | 40963 ft | 435 kts | 196° |
| 2026-05-06 12:04 | 40.26526 | 3.20134 | 40962 ft | 435 kts | 196° |
| 2026-05-06 12:04 | 40.20607 | 3.18606 | 40946 ft | 435 kts | 196° |
| 2026-05-06 12:05 | 40.14655 | 3.17074 | 40953 ft | 435 kts | 196° |
| 2026-05-06 12:05 | 40.08702 | 3.15546 | 40961 ft | 435 kts | 196° |
| 2026-05-06 12:06 | 40.03758 | 3.14280 | 40954 ft | 435 kts | 196° |
| 2026-05-06 12:06 | 39.97816 | 3.12760 | 40947 ft | 435 kts | 196° |
| 2026-05-06 12:07 | 39.92177 | 3.10216 | 40964 ft | 424 kts | 215° |
| 2026-05-06 12:07 | 39.86941 | 3.04590 | 40967 ft | 420 kts | 224° |
| 2026-05-06 12:08 | 39.83335 | 3.00324 | 40959 ft | 422 kts | 224° |
| 2026-05-06 12:08 | 39.78992 | 2.95192 | 40945 ft | 422 kts | 224° |
| 2026-05-06 12:09 | 39.76822 | 2.92632 | 40746 ft | 421 kts | 224° |
| 2026-05-06 12:09 | 39.74655 | 2.90079 | 40502 ft | 418 kts | 224° |
| 2026-05-06 12:09 | 39.72503 | 2.87545 | 40254 ft | 417 kts | 224° |
| 2026-05-06 12:09 | 39.70357 | 2.85020 | 40008 ft | 416 kts | 224° |
| 2026-05-06 12:10 | 39.68215 | 2.82501 | 39777 ft | 415 kts | 224° |
| 2026-05-06 12:10 | 39.66080 | 2.79994 | 39544 ft | 414 kts | 224° |
| 2026-05-06 12:10 | 39.63940 | 2.77483 | 39304 ft | 413 kts | 224° |
| 2026-05-06 12:10 | 39.61818 | 2.74995 | 38928 ft | 410 kts | 224° |
| 2026-05-06 12:11 | 39.59697 | 2.72511 | 38385 ft | 410 kts | 224° |
| 2026-05-06 12:11 | 39.57581 | 2.70033 | 37832 ft | 409 kts | 224° |
| 2026-05-06 12:11 | 39.55473 | 2.67569 | 37280 ft | 408 kts | 224° |
| 2026-05-06 12:11 | 39.53371 | 2.65112 | 36758 ft | 407 kts | 225° |
| 2026-05-06 12:12 | 39.51269 | 2.62660 | 36236 ft | 406 kts | 225° |
| 2026-05-06 12:12 | 39.49171 | 2.60211 | 35665 ft | 406 kts | 225° |
| 2026-05-06 12:12 | 39.47094 | 2.57791 | 35092 ft | 406 kts | 225° |
| 2026-05-06 12:12 | 39.44985 | 2.55334 | 34442 ft | 408 kts | 224° |
| 2026-05-06 12:13 | 39.42871 | 2.52874 | 33740 ft | 411 kts | 224° |
| 2026-05-06 12:13 | 39.40737 | 2.50393 | 32963 ft | 413 kts | 224° |
| 2026-05-06 12:13 | 39.38594 | 2.47904 | 32181 ft | 415 kts | 224° |
| 2026-05-06 12:13 | 39.36440 | 2.45404 | 31404 ft | 417 kts | 224° |
| 2026-05-06 12:14 | 39.34277 | 2.42895 | 30603 ft | 420 kts | 224° |
| 2026-05-06 12:14 | 39.32097 | 2.40369 | 29770 ft | 421 kts | 224° |
| 2026-05-06 12:14 | 39.29932 | 2.37865 | 29236 ft | 415 kts | 224° |
| 2026-05-06 12:14 | 39.27789 | 2.35388 | 28670 ft | 409 kts | 224° |
| 2026-05-06 12:15 | 39.25679 | 2.32951 | 28109 ft | 404 kts | 224° |
| 2026-05-06 12:15 | 39.23618 | 2.30572 | 27558 ft | 400 kts | 224° |
| 2026-05-06 12:15 | 39.21553 | 2.28191 | 27023 ft | 396 kts | 224° |
| 2026-05-06 12:15 | 39.19507 | 2.25832 | 26437 ft | 392 kts | 224° |
| 2026-05-06 12:16 | 39.17477 | 2.23493 | 25904 ft | 389 kts | 224° |
| 2026-05-06 12:16 | 39.15469 | 2.21183 | 25351 ft | 386 kts | 224° |
| 2026-05-06 12:16 | 39.13472 | 2.18886 | 24800 ft | 383 kts | 224° |
| 2026-05-06 12:16 | 39.11483 | 2.16601 | 24246 ft | 381 kts | 224° |
| 2026-05-06 12:17 | 39.09508 | 2.14333 | 23671 ft | 379 kts | 224° |
| 2026-05-06 12:17 | 39.07544 | 2.12080 | 23129 ft | 376 kts | 224° |
| 2026-05-06 12:17 | 39.05631 | 2.09890 | 22731 ft | 358 kts | 224° |
| 2026-05-06 12:17 | 39.03820 | 2.07820 | 22041 ft | 338 kts | 224° |
| 2026-05-06 12:18 | 39.02271 | 2.06048 | 21566 ft | 332 kts | 224° |
| 2026-05-06 12:18 | 39.00524 | 2.04045 | 21297 ft | 337 kts | 224° |
| 2026-05-06 12:18 | 38.98807 | 2.02081 | 20905 ft | 334 kts | 224° |
| 2026-05-06 12:18 | 38.97071 | 2.00096 | 20396 ft | 334 kts | 224° |
| 2026-05-06 12:19 | 38.95329 | 1.98108 | 19937 ft | 333 kts | 223° |
| 2026-05-06 12:19 | 38.93597 | 1.96131 | 19486 ft | 332 kts | 223° |
| 2026-05-06 12:19 | 38.91931 | 1.94075 | 19030 ft | 330 kts | 230° |
| 2026-05-06 12:19 | 38.90668 | 1.91685 | 18614 ft | 328 kts | 244° |
| 2026-05-06 12:20 | 38.89889 | 1.88938 | 18185 ft | 327 kts | 253° |
| 2026-05-06 12:20 | 38.89309 | 1.86121 | 17701 ft | 326 kts | 255° |
| 2026-05-06 12:20 | 38.88748 | 1.83309 | 17254 ft | 324 kts | 255° |
| 2026-05-06 12:20 | 38.88185 | 1.80521 | 16824 ft | 322 kts | 255° |
| 2026-05-06 12:21 | 38.87618 | 1.77739 | 16398 ft | 320 kts | 255° |
| 2026-05-06 12:21 | 38.87054 | 1.74986 | 15955 ft | 319 kts | 255° |
| 2026-05-06 12:21 | 38.86490 | 1.72242 | 15556 ft | 317 kts | 255° |
| 2026-05-06 12:21 | 38.85940 | 1.69572 | 15316 ft | 303 kts | 255° |
| 2026-05-06 12:22 | 38.85415 | 1.67026 | 14783 ft | 289 kts | 255° |
| 2026-05-06 12:22 | 38.84900 | 1.64541 | 14169 ft | 288 kts | 255° |
| 2026-05-06 12:22 | 38.84386 | 1.62061 | 13853 ft | 285 kts | 255° |
| 2026-05-06 12:22 | 38.83890 | 1.59667 | 13634 ft | 271 kts | 255° |
| 2026-05-06 12:23 | 38.83408 | 1.57393 | 13223 ft | 258 kts | 254° |
| 2026-05-06 12:23 | 38.82923 | 1.55217 | 12623 ft | 253 kts | 253° |
| 2026-05-06 12:23 | 38.82434 | 1.53033 | 12115 ft | 253 kts | 254° |
| 2026-05-06 12:23 | 38.81949 | 1.50861 | 11873 ft | 252 kts | 254° |
| 2026-05-06 12:24 | 38.81469 | 1.48708 | 11677 ft | 250 kts | 254° |
| 2026-05-06 12:24 | 38.80995 | 1.46573 | 11463 ft | 248 kts | 254° |
| 2026-05-06 12:24 | 38.80527 | 1.44475 | 11220 ft | 248 kts | 254° |
| 2026-05-06 12:24 | 38.79926 | 1.42412 | 10988 ft | 248 kts | 245° |
| 2026-05-06 12:25 | 38.79145 | 1.40446 | 10772 ft | 247 kts | 243° |
| 2026-05-06 12:25 | 38.78339 | 1.38507 | 10536 ft | 246 kts | 243° |
| 2026-05-06 12:25 | 38.77538 | 1.36582 | 10306 ft | 246 kts | 243° |
| 2026-05-06 12:25 | 38.76731 | 1.34640 | 10092 ft | 245 kts | 243° |
| 2026-05-06 12:26 | 38.75929 | 1.32707 | 9849 ft | 245 kts | 243° |
| 2026-05-06 12:26 | 38.75136 | 1.30794 | 9641 ft | 242 kts | 243° |
| 2026-05-06 12:26 | 38.74345 | 1.28885 | 9336 ft | 243 kts | 243° |
| 2026-05-06 12:26 | 38.73557 | 1.26978 | 9098 ft | 242 kts | 243° |
| 2026-05-06 12:27 | 38.72763 | 1.25064 | 8778 ft | 244 kts | 242° |
| 2026-05-06 12:27 | 38.71971 | 1.23173 | 8521 ft | 243 kts | 243° |
| 2026-05-06 12:27 | 38.71180 | 1.21281 | 8305 ft | 241 kts | 242° |
| 2026-05-06 12:27 | 38.70390 | 1.19391 | 8040 ft | 240 kts | 242° |
| 2026-05-06 12:28 | 38.69599 | 1.17499 | 7777 ft | 240 kts | 242° |
| 2026-05-06 12:28 | 38.68809 | 1.15609 | 7482 ft | 242 kts | 242° |
| 2026-05-06 12:28 | 38.68026 | 1.13737 | 7286 ft | 235 kts | 242° |
| 2026-05-06 12:28 | 38.67267 | 1.11917 | 6835 ft | 231 kts | 242° |
| 2026-05-06 12:29 | 38.66515 | 1.10117 | 6431 ft | 229 kts | 241° |
| 2026-05-06 12:29 | 38.65759 | 1.08318 | 6106 ft | 230 kts | 241° |
| 2026-05-06 12:29 | 38.65004 | 1.06510 | 5851 ft | 231 kts | 242° |
| 2026-05-06 12:29 | 38.64453 | 1.04578 | 5612 ft | 232 kts | 256° |
| 2026-05-06 12:30 | 38.64160 | 1.02560 | 5507 ft | 232 kts | 260° |
| 2026-05-06 12:30 | 38.63915 | 1.00523 | 5502 ft | 232 kts | 261° |
| 2026-05-06 12:30 | 38.63944 | 0.98460 | 5499 ft | 234 kts | 284° |
| 2026-05-06 12:30 | 38.64734 | 0.96683 | 5504 ft | 231 kts | 317° |
| 2026-05-06 12:31 | 38.66065 | 0.95540 | 5506 ft | 232 kts | 332° |
| 2026-05-06 12:31 | 38.67568 | 0.94798 | 5499 ft | 232 kts | 352° |
| 2026-05-06 12:31 | 38.69129 | 0.95055 | 5500 ft | 225 kts | 27° |
| 2026-05-06 12:31 | 38.70254 | 0.96311 | 5497 ft | 209 kts | 57° |
| 2026-05-06 12:32 | 38.70964 | 0.97843 | 5490 ft | 198 kts | 63° |
| 2026-05-06 12:32 | 38.72163 | 1.00677 | 5510 ft | 195 kts | 63° |
| 2026-05-06 12:32 | 38.72794 | 1.02194 | 5525 ft | 189 kts | 64° |
| 2026-05-06 12:33 | 38.73361 | 1.03639 | 5493 ft | 174 kts | 64° |
| 2026-05-06 12:33 | 38.73898 | 1.04955 | 5419 ft | 163 kts | 64° |
| 2026-05-06 12:33 | 38.74434 | 1.06246 | 5260 ft | 164 kts | 63° |
| 2026-05-06 12:33 | 38.74964 | 1.07523 | 5016 ft | 161 kts | 64° |
| 2026-05-06 12:34 | 38.75489 | 1.08790 | 4760 ft | 159 kts | 64° |
| 2026-05-06 12:34 | 38.76005 | 1.10037 | 4514 ft | 157 kts | 64° |
| 2026-05-06 12:34 | 38.76513 | 1.11263 | 4264 ft | 154 kts | 63° |
| 2026-05-06 12:34 | 38.77004 | 1.12447 | 4052 ft | 150 kts | 63° |
| 2026-05-06 12:35 | 38.77475 | 1.13583 | 3844 ft | 138 kts | 63° |
| 2026-05-06 12:35 | 38.77907 | 1.14626 | 3665 ft | 129 kts | 64° |
| 2026-05-06 12:35 | 38.78324 | 1.15636 | 3523 ft | 128 kts | 63° |
| 2026-05-06 12:35 | 38.78741 | 1.16642 | 3343 ft | 128 kts | 63° |
| 2026-05-06 12:36 | 38.79158 | 1.17652 | 3185 ft | 129 kts | 62° |
| 2026-05-06 12:36 | 38.79579 | 1.18667 | 3013 ft | 128 kts | 62° |
| 2026-05-06 12:36 | 38.79989 | 1.19660 | 2837 ft | 127 kts | 63° |
| 2026-05-06 12:36 | 38.80401 | 1.20655 | 2676 ft | 126 kts | 62° |
| 2026-05-06 12:37 | 38.80811 | 1.21645 | 2500 ft | 125 kts | 62° |
| 2026-05-06 12:37 | 38.81216 | 1.22635 | 2346 ft | 125 kts | 60° |
| 2026-05-06 12:37 | 38.81626 | 1.23618 | 2157 ft | 124 kts | 62° |
| 2026-05-06 12:37 | 38.82027 | 1.24586 | 1994 ft | 124 kts | 61° |
| 2026-05-06 12:38 | 38.82432 | 1.25563 | 1836 ft | 124 kts | 62° |
| 2026-05-06 12:38 | 38.82835 | 1.26539 | 1680 ft | 123 kts | 61° |
| 2026-05-06 12:38 | 38.83239 | 1.27517 | 1500 ft | 124 kts | 60° |
| 2026-05-06 12:38 | 38.83642 | 1.28490 | 1326 ft | 123 kts | 61° |
| 2026-05-06 12:39 | 38.84042 | 1.29457 | 1167 ft | 124 kts | 62° |
| 2026-05-06 12:39 | 38.84443 | 1.30431 | 995 ft | 122 kts | 62° |
| 2026-05-06 12:39 | 38.84843 | 1.31397 | 834 ft | 123 kts | 63° |
| 2026-05-06 12:39 | 38.85241 | 1.32359 | 671 ft | 121 kts | 64° |
| 2026-05-06 12:40 | 38.85638 | 1.33321 | 520 ft | 122 kts | 64° |
| 2026-05-06 12:40 | 38.86031 | 1.34273 | 367 ft | 121 kts | 64° |
| 2026-05-06 12:40 | 38.86425 | 1.35224 | 204 ft | 120 kts | 66° |
| 2026-05-06 12:40 | 38.86817 | 1.36160 | 43 ft | 117 kts | 65° |
| 2026-05-06 12:41 | 38.87133 | 1.36946 | 35 ft | 75 kts | 62° |
| 2026-05-06 12:41 | 38.87294 | 1.37331 | 34 ft | 23 kts | 56° |
| 2026-05-06 12:41 | 38.87359 | 1.37414 | 33 ft | 8 kts | 40° |
| 2026-05-06 12:41 | 38.87484 | 1.37531 | 33 ft | 20 kts | 28° |
| 2026-05-06 12:42 | 38.87516 | 1.37549 | 33 ft | 6 kts | 25° |
| 2026-05-06 12:42 | 38.87557 | 1.37563 | 33 ft | 5 kts | 356° |
| 2026-05-06 12:42 | 38.87587 | 1.37550 | 33 ft | 5 kts | 335° |
| 2026-05-06 12:42 | 38.87638 | 1.37519 | 33 ft | 11 kts | 333° |
| 2026-05-06 12:43 | 38.87705 | 1.37452 | 33 ft | 9 kts | 287° |
| 2026-05-06 12:43 | 38.87685 | 1.37382 | 33 ft | 10 kts | 239° |
| 2026-05-06 12:43 | 38.87639 | 1.37277 | 33 ft | 17 kts | 242° |
| 2026-05-06 12:43 | 38.87576 | 1.37123 | 33 ft | 22 kts | 242° |
| 2026-05-06 12:44 | 38.87501 | 1.36942 | 32 ft | 17 kts | 242° |
| 2026-05-06 12:44 | 38.87489 | 1.36913 | 32 ft | 6 kts | 242° |
| 2026-05-06 12:44 | 38.87449 | 1.36817 | 32 ft | 16 kts | 242° |
| 2026-05-06 12:44 | 38.87408 | 1.36725 | 32 ft | 12 kts | 237° |
| 2026-05-06 12:45 | 38.87367 | 1.36630 | 32 ft | 9 kts | 250° |
| 2026-05-06 12:45 | 38.87381 | 1.36600 | 32 ft | 1 kts | 340° |
| 2026-05-06 12:45 | 38.87436 | 1.36599 | 32 ft | 1 kts | 3° |
| 2026-05-06 12:46 | 38.87437 | 1.36599 | 32 ft | 0 kts | 3° |